Terminal Aerodrome Forecast
Issued by NWS

Home | Current Version | Previous Version | Text Only | Print | Product List | Glossary On
Versions: 1 2 3 4 5 6 7 8 9 10 11 12 13
000
FTUS44 KCRP 312337
TAFALI
TAF
KALI 312337Z 0100/0124 11008KT P6SM BKN150 OVC250
     FM011400 15008KT P6SM VCSH BKN035 BKN200
     FM011700 14010KT P6SM VCTS BKN040CB BKN120
     FM011900 13012KT P6SM -TSRA BKN050CB OVC150=

USA.gov is the U.S. government's official web portal to all federal, state and local government web resources and services.